Time;durP1;ratioP1;P1;durP2;ratioP2;P2;SDS_P1;SDS_P2;PMS_P1;PMS_P2;Temp;Humidity;BMP_temperature;BMP_pressure;BME280_temperature;BME280_humidity;BME280_pressure;Samples;Min_cycle;Max_cycle;Signal;HPM_P1;HPM_P2
2022/06/04 00:01:44;;;;;;;;;;;21.20;40.60;;;;;;5015442;28;20004;-88
2022/06/04 00:04:11;;;;;;;;;;;21.10;40.80;;;;;;5015718;28;19924;-88
2022/06/04 00:06:37;;;;;;;;;;;21.00;41.00;;;;;;5015145;28;20008;-89
2022/06/04 00:09:04;;;;;;;;;;;20.90;41.10;;;;;;5032846;28;19960;-89
2022/06/04 00:16:57;;;;;;;;;;;20.70;41.50;;;;;;5021294;28;19924;-89
2022/06/04 00:19:23;;;;;;;;;;;20.60;41.80;;;;;;5032602;28;19917;-88
2022/06/04 00:21:50;;;;;;;;;;;20.50;41.90;;;;;;5029918;28;19913;-88
2022/06/04 00:24:16;;;;;;;;;;;20.50;42.30;;;;;;5014436;28;20380;-88
2022/06/04 00:26:41;;;;;;;;;;;20.40;42.30;;;;;;5014410;28;19917;-88
2022/06/04 00:29:09;;;;;;;;;;;20.40;42.60;;;;;;5030343;28;19917;-88
2022/06/04 00:31:36;;;;;;;;;;;20.30;42.90;;;;;;5030892;28;19936;-87
2022/06/04 00:34:02;;;;;;;;;;;20.30;42.90;;;;;;5023803;28;20013;-88
2022/06/04 00:36:28;;;;;;;;;;;20.30;43.10;;;;;;5032007;28;19940;-88
2022/06/04 00:38:53;;;;;;;;;;;20.20;43.40;;;;;;5032294;28;19960;-89
2022/06/04 00:41:25;;;;;;;;;;;20.20;43.90;;;;;;5014105;28;19913;-89
2022/06/04 00:43:56;;;;;;;;;;;20.10;43.90;;;;;;5011137;28;19953;-89
2022/06/04 00:46:40;;;;;;;;;;;20.10;44.40;;;;;;5033004;28;20477;-88
2022/06/04 00:49:09;;;;;;;;;;;20.00;44.40;;;;;;5016292;28;19924;-88
2022/06/04 00:51:35;;;;;;;;;;;20.00;44.60;;;;;;5008577;28;19941;-88
2022/06/04 00:54:01;;;;;;;;;;;20.00;44.60;;;;;;5031231;28;19924;-88
2022/06/04 00:56:37;;;;;;;;;;;19.90;44.90;;;;;;5026713;28;19914;-88
2022/06/04 00:59:06;;;;;;;;;;;19.90;45.40;;;;;;5018134;28;19918;-88
2022/06/04 01:01:54;;;;;;;;;;;19.80;45.20;;;;;;5035999;28;19917;-88
2022/06/04 01:04:47;;;;;;;;;;;19.80;45.30;;;;;;5007808;28;20308;-89
2022/06/04 01:07:25;;;;;;;;;;;19.80;45.90;;;;;;5018266;28;19917;-89
2022/06/04 01:10:09;;;;;;;;;;;19.70;46.20;;;;;;5018437;28;19923;-89
2022/06/04 01:12:37;;;;;;;;;;;19.70;46.30;;;;;;5018109;28;19965;-89
2022/06/04 01:15:12;;;;;;;;;;;19.60;46.30;;;;;;5014487;28;19913;-88
2022/06/04 01:17:45;;;;;;;;;;;19.50;46.50;;;;;;5014728;28;19987;-88
2022/06/04 01:20:30;;;;;;;;;;;19.50;46.50;;;;;;5014350;28;19921;-88
2022/06/04 01:22:55;;;;;;;;;;;19.40;46.70;;;;;;5014114;28;19967;-89
2022/06/04 01:25:40;;;;;;;;;;;19.30;46.80;;;;;;5036120;28;20632;-88
2022/06/04 01:28:11;;;;;;;;;;;19.30;46.80;;;;;;5035813;28;19921;-87
2022/06/04 01:30:43;;;;;;;;;;;19.20;47.00;;;;;;5026812;28;19913;-88
2022/06/04 01:33:12;;;;;;;;;;;19.20;47.30;;;;;;5015843;28;19928;-87
2022/06/04 01:35:48;;;;;;;;;;;19.10;47.60;;;;;;5034691;28;20057;-88
2022/06/04 01:38:24;;;;;;;;;;;19.10;47.80;;;;;;5027699;28;19925;-88
2022/06/04 01:41:03;;;;;;;;;;;19.00;48.10;;;;;;5017635;28;19953;-88
2022/06/04 01:43:32;;;;;;;;;;;19.00;48.10;;;;;;5034935;28;19928;-87
2022/06/04 01:45:59;;;;;;;;;;;18.90;48.30;;;;;;5035100;28;19949;-88
2022/06/04 01:48:26;;;;;;;;;;;18.80;48.40;;;;;;5034481;28;20276;-88
2022/06/04 01:50:56;;;;;;;;;;;18.80;48.60;;;;;;5034813;28;19917;-88
2022/06/04 01:53:22;;;;;;;;;;;18.80;48.60;;;;;;5033528;28;20363;-88
2022/06/04 01:55:54;;;;;;;;;;;18.70;48.70;;;;;;5017531;28;19917;-88
2022/06/04 01:58:31;;;;;;;;;;;18.70;48.70;;;;;;5039246;28;19932;-88
2022/06/04 02:00:58;;;;;;;;;;;18.70;48.90;;;;;;5017210;28;19913;-88
2022/06/04 02:03:31;;;;;;;;;;;18.70;48.90;;;;;;5016552;28;19917;-88
2022/06/04 02:05:59;;;;;;;;;;;18.70;49.20;;;;;;5016245;28;19913;-88
2022/06/04 02:08:28;;;;;;;;;;;18.70;49.50;;;;;;5033609;28;19918;-88
2022/06/04 02:10:55;;;;;;;;;;;18.80;49.80;;;;;;5015006;28;20546;-88
2022/06/04 02:13:21;;;;;;;;;;;18.70;49.80;;;;;;5017006;28;20405;-88
2022/06/04 02:15:53;;;;;;;;;;;18.80;49.60;;;;;;5016205;28;19913;-88
2022/06/04 02:18:18;;;;;;;;;;;18.80;49.70;;;;;;5033568;28;20332;-88
2022/06/04 02:20:44;;;;;;;;;;;18.80;49.60;;;;;;5034678;28;19917;-88
2022/06/04 02:23:09;;;;;;;;;;;18.80;49.60;;;;;;5013470;28;19967;-88
2022/06/04 02:25:35;;;;;;;;;;;18.80;49.70;;;;;;5031323;28;19967;-88
2022/06/04 02:28:01;;;;;;;;;;;18.80;49.70;;;;;;5032707;28;20408;-88
2022/06/04 02:30:30;;;;;;;;;;;18.80;49.70;;;;;;5034120;28;19920;-88
2022/06/04 02:32:59;;;;;;;;;;;18.80;49.70;;;;;;5016093;28;19917;-88
2022/06/04 02:35:51;;;;;;;;;;;18.70;49.70;;;;;;5016079;28;19921;-88
2022/06/04 02:38:29;;;;;;;;;;;18.70;49.80;;;;;;5031272;28;19932;-88
2022/06/04 02:41:18;;;;;;;;;;;18.70;49.80;;;;;;5032840;28;19941;-88
2022/06/04 02:43:47;;;;;;;;;;;18.70;49.70;;;;;;5007955;28;19924;-87
2022/06/04 02:46:13;;;;;;;;;;;18.70;49.80;;;;;;5013339;28;20304;-88
2022/06/04 02:48:41;;;;;;;;;;;18.70;49.90;;;;;;5034282;28;19918;-88
2022/06/04 02:51:10;;;;;;;;;;;18.70;50.10;;;;;;5022034;28;20350;-88
2022/06/04 02:53:36;;;;;;;;;;;18.70;49.90;;;;;;5034269;28;19918;-88
2022/06/04 02:56:08;;;;;;;;;;;18.60;49.90;;;;;;5015828;28;19921;-88
2022/06/04 02:58:34;;;;;;;;;;;18.60;50.00;;;;;;5031095;28;20428;-88
2022/06/04 03:01:01;;;;;;;;;;;18.60;50.10;;;;;;5016498;28;19948;-88
2022/06/04 03:03:26;;;;;;;;;;;18.60;50.30;;;;;;5033953;28;19976;-89
2022/06/04 03:06:14;;;;;;;;;;;18.60;50.30;;;;;;5015137;28;20246;-88
2022/06/04 03:08:40;;;;;;;;;;;18.60;50.40;;;;;;5033346;28;19991;-88
2022/06/04 03:11:05;;;;;;;;;;;18.50;50.40;;;;;;5016763;28;19963;-88
2022/06/04 03:13:31;;;;;;;;;;;18.50;50.20;;;;;;5034957;28;19967;-89
2022/06/04 03:15:56;;;;;;;;;;;18.50;50.30;;;;;;5016232;28;19955;-89
2022/06/04 03:18:22;;;;;;;;;;;18.40;50.40;;;;;;5014839;28;19921;-88
2022/06/04 03:20:47;;;;;;;;;;;18.30;50.50;;;;;;5034946;28;19935;-89
2022/06/04 03:23:13;;;;;;;;;;;18.30;50.80;;;;;;5016931;28;19972;-89
2022/06/04 03:25:39;;;;;;;;;;;18.30;50.80;;;;;;5017181;28;19946;-88
2022/06/04 03:28:05;;;;;;;;;;;18.30;50.80;;;;;;5014529;28;20086;-88
2022/06/04 03:30:31;;;;;;;;;;;18.30;50.90;;;;;;5034348;28;19920;-89
2022/06/04 03:32:56;;;;;;;;;;;18.30;51.10;;;;;;5012885;28;19918;-89
2022/06/04 03:35:22;;;;;;;;;;;18.30;51.10;;;;;;5013862;28;19999;-88
2022/06/04 03:37:47;;;;;;;;;;;18.30;51.10;;;;;;5012272;28;19930;-88
2022/06/04 03:40:13;;;;;;;;;;;18.40;51.30;;;;;;5032428;28;20007;-88
2022/06/04 03:42:39;;;;;;;;;;;18.50;51.40;;;;;;5033558;28;19917;-88
2022/06/04 03:45:06;;;;;;;;;;;18.60;51.30;;;;;;5033521;28;19913;-89
2022/06/04 03:47:36;;;;;;;;;;;18.70;51.00;;;;;;5015083;28;19932;-88
2022/06/04 03:50:05;;;;;;;;;;;18.90;50.90;;;;;;5024607;28;20266;-88
2022/06/04 03:52:30;;;;;;;;;;;19.00;50.80;;;;;;5006554;28;19972;-88
2022/06/04 03:54:57;;;;;;;;;;;19.20;50.40;;;;;;5003353;28;19921;-89
2022/06/04 03:57:41;;;;;;;;;;;19.30;50.00;;;;;;5034352;28;19975;-88
2022/06/04 04:00:09;;;;;;;;;;;19.50;49.80;;;;;;5016261;28;19913;-89
2022/06/04 04:02:36;;;;;;;;;;;19.70;49.60;;;;;;5028019;28;19971;-89
2022/06/04 04:05:02;;;;;;;;;;;19.80;49.00;;;;;;5016883;28;20344;-89
2022/06/04 04:07:27;;;;;;;;;;;19.90;48.40;;;;;;5016200;28;19921;-89
2022/06/04 04:09:52;;;;;;;;;;;20.00;48.20;;;;;;5012661;28;19913;-89
2022/06/04 04:12:18;;;;;;;;;;;20.10;47.70;;;;;;5012914;28;19964;-89
2022/06/04 04:14:43;;;;;;;;;;;20.10;47.40;;;;;;5031500;28;19917;-89
2022/06/04 04:17:09;;;;;;;;;;;20.20;47.30;;;;;;5033193;28;19925;-89
2022/06/04 04:19:35;;;;;;;;;;;20.20;47.00;;;;;;5019907;28;19917;-89
2022/06/04 04:22:01;;;;;;;;;;;20.30;47.10;;;;;;5018235;28;19989;-88
2022/06/04 04:24:26;;;;;;;;;;;20.40;46.80;;;;;;5019426;28;19941;-88
2022/06/04 04:26:52;;;;;;;;;;;20.50;46.80;;;;;;5018456;28;20293;-88
2022/06/04 04:29:17;;;;;;;;;;;20.70;46.90;;;;;;5019809;28;20301;-89
2022/06/04 04:31:43;;;;;;;;;;;20.90;46.50;;;;;;5036801;28;19921;-89
2022/06/04 04:34:08;;;;;;;;;;;21.10;46.10;;;;;;5019336;28;19917;-89
2022/06/04 04:36:34;;;;;;;;;;;21.20;45.40;;;;;;5019576;28;19917;-88
2022/06/04 04:38:59;;;;;;;;;;;21.30;45.20;;;;;;5036800;28;19995;-88
2022/06/04 04:41:25;;;;;;;;;;;21.50;45.10;;;;;;5036025;28;19920;-89
2022/06/04 04:43:51;;;;;;;;;;;21.80;44.90;;;;;;5018702;28;19921;-89
2022/06/04 04:46:17;;;;;;;;;;;22.10;44.80;;;;;;5016612;28;19917;-89
2022/06/04 04:48:44;;;;;;;;;;;22.40;44.40;;;;;;5030144;28;19917;-89
2022/06/04 04:51:12;;;;;;;;;;;22.70;43.50;;;;;;5030421;28;20005;-89
2022/06/04 04:53:37;;;;;;;;;;;23.00;42.20;;;;;;5037630;28;19940;-89
2022/06/04 04:56:03;;;;;;;;;;;23.20;41.10;;;;;;5043295;28;19917;-89
2022/06/04 04:58:28;;;;;;;;;;;23.30;41.00;;;;;;5015328;28;19925;-89
2022/06/04 05:00:54;;;;;;;;;;;23.40;40.40;;;;;;5032850;28;19913;-89
2022/06/04 05:03:19;;;;;;;;;;;23.60;40.60;;;;;;5036169;28;19984;-89
2022/06/04 05:05:45;;;;;;;;;;;23.70;39.70;;;;;;5036006;28;19917;-89
2022/06/04 05:08:10;;;;;;;;;;;23.80;39.10;;;;;;5017847;28;19921;-89
2022/06/04 05:10:35;;;;;;;;;;;23.90;38.60;;;;;;5035426;28;19917;-89
2022/06/04 05:13:01;;;;;;;;;;;24.00;38.60;;;;;;5025376;28;19921;-89
2022/06/04 05:15:26;;;;;;;;;;;24.10;37.80;;;;;;5018506;28;19920;-89
2022/06/04 05:17:52;;;;;;;;;;;24.10;37.20;;;;;;5017182;28;20395;-89
2022/06/04 05:20:18;;;;;;;;;;;24.00;37.10;;;;;;5014312;28;19914;-89
2022/06/04 05:22:43;;;;;;;;;;;23.80;37.30;;;;;;5014693;28;20266;-90
2022/06/04 05:25:09;;;;;;;;;;;23.80;37.60;;;;;;4998732;28;19979;-89
2022/06/04 05:27:34;;;;;;;;;;;23.70;37.30;;;;;;5013933;28;19924;-89
2022/06/04 05:30:00;;;;;;;;;;;23.70;37.00;;;;;;5018525;28;19914;-89
2022/06/04 05:32:25;;;;;;;;;;;23.50;37.20;;;;;;5017701;28;19944;-88
2022/06/04 05:34:51;;;;;;;;;;;23.40;37.10;;;;;;5036073;28;19924;-88
2022/06/04 05:37:16;;;;;;;;;;;23.30;37.10;;;;;;5017757;28;20373;-88
2022/06/04 05:39:42;;;;;;;;;;;23.20;37.20;;;;;;5043082;28;20266;-88
2022/06/04 05:42:08;;;;;;;;;;;23.20;37.40;;;;;;5018154;28;19936;-88
2022/06/04 05:44:33;;;;;;;;;;;23.10;37.50;;;;;;5017901;28;19925;-88
2022/06/04 05:46:59;;;;;;;;;;;23.10;37.60;;;;;;5014510;28;19972;-88
2022/06/04 05:49:25;;;;;;;;;;;23.10;37.60;;;;;;5010250;28;19913;-88
2022/06/04 05:51:51;;;;;;;;;;;23.10;37.50;;;;;;5018439;28;20139;-89
2022/06/04 05:54:17;;;;;;;;;;;23.10;37.50;;;;;;5036019;28;19921;-89
2022/06/04 05:56:44;;;;;;;;;;;23.20;37.70;;;;;;5036867;28;19995;-88
2022/06/04 05:59:11;;;;;;;;;;;23.30;37.60;;;;;;5017160;28;20316;-87
2022/06/04 06:01:40;;;;;;;;;;;23.50;37.70;;;;;;5027397;28;19913;-89
2022/06/04 06:04:07;;;;;;;;;;;23.70;37.30;;;;;;5014685;28;20366;-89
2022/06/04 06:06:34;;;;;;;;;;;23.90;37.00;;;;;;4998973;28;19913;-89
2022/06/04 06:09:02;;;;;;;;;;;24.20;37.10;;;;;;5000049;28;20348;-89
2022/06/04 06:11:28;;;;;;;;;;;24.60;36.10;;;;;;4997909;28;19910;-89
2022/06/04 06:13:53;;;;;;;;;;;25.00;35.50;;;;;;5006992;28;19918;-89
2022/06/04 06:16:21;;;;;;;;;;;25.30;34.70;;;;;;5017061;28;19914;-89
2022/06/04 06:18:47;;;;;;;;;;;25.60;33.90;;;;;;5030157;28;19925;-88
2022/06/04 06:21:17;;;;;;;;;;;26.00;33.60;;;;;;5035830;28;19963;-89
2022/06/04 06:23:43;;;;;;;;;;;26.40;32.70;;;;;;5034913;28;19921;-89
2022/06/04 06:26:11;;;;;;;;;;;26.70;31.90;;;;;;5008892;28;19914;-88
2022/06/04 06:28:37;;;;;;;;;;;27.00;31.50;;;;;;4999551;28;19914;-88
2022/06/04 06:31:04;;;;;;;;;;;27.20;31.10;;;;;;5017685;28;19921;-89
2022/06/04 06:33:29;;;;;;;;;;;27.50;31.20;;;;;;5035601;28;19921;-89
2022/06/04 06:35:59;;;;;;;;;;;27.90;31.10;;;;;;5017588;28;19951;-89
2022/06/04 06:38:26;;;;;;;;;;;28.20;29.70;;;;;;5033804;28;19928;-89
2022/06/04 06:40:54;;;;;;;;;;;28.60;29.80;;;;;;5017131;28;19996;-89
2022/06/04 06:43:19;;;;;;;;;;;28.90;28.70;;;;;;5035275;28;19920;-89
2022/06/04 06:45:46;;;;;;;;;;;29.30;27.90;;;;;;5015606;28;19914;-90
2022/06/04 06:48:12;;;;;;;;;;;29.60;27.30;;;;;;5017283;28;20364;-90
2022/06/04 06:50:37;;;;;;;;;;;29.80;26.80;;;;;;5017094;28;19913;-90
2022/06/04 06:53:03;;;;;;;;;;;29.90;26.60;;;;;;5017771;28;19917;-89
2022/06/04 06:55:28;;;;;;;;;;;30.10;26.40;;;;;;5017796;28;19913;-89
2022/06/04 06:57:54;;;;;;;;;;;30.20;26.00;;;;;;5012680;28;19925;-89
2022/06/04 07:00:19;;;;;;;;;;;30.20;25.70;;;;;;5014568;28;19988;-89
2022/06/04 07:02:46;;;;;;;;;;;30.20;26.10;;;;;;5015520;28;19925;-90
2022/06/04 07:05:11;;;;;;;;;;;30.30;26.30;;;;;;5032538;28;19964;-90
2022/06/04 07:07:37;;;;;;;;;;;30.60;26.20;;;;;;5014397;28;20289;-90
2022/06/04 07:10:03;;;;;;;;;;;30.80;26.20;;;;;;5032889;28;20059;-89
2022/06/04 07:12:29;;;;;;;;;;;31.10;25.30;;;;;;5018205;28;19917;-90
2022/06/04 07:14:54;;;;;;;;;;;31.20;25.00;;;;;;5032550;28;20393;-90
2022/06/04 07:17:20;;;;;;;;;;;31.30;25.10;;;;;;5034578;28;19925;-90
2022/06/04 07:19:45;;;;;;;;;;;31.40;24.70;;;;;;5016662;28;19913;-89
2022/06/04 07:22:10;;;;;;;;;;;31.50;24.70;;;;;;5016538;28;19925;-90
2022/06/04 07:24:36;;;;;;;;;;;31.70;24.70;;;;;;5016741;28;21600;-89
2022/06/04 07:27:03;;;;;;;;;;;31.80;24.40;;;;;;5024340;28;19913;-90
2022/06/04 07:29:28;;;;;;;;;;;31.90;24.00;;;;;;5016808;28;19913;-89
2022/06/04 07:31:54;;;;;;;;;;;32.00;24.20;;;;;;5017463;28;19913;-90
2022/06/04 07:34:20;;;;;;;;;;;32.20;24.30;;;;;;5033453;28;20040;-90
2022/06/04 07:36:46;;;;;;;;;;;32.40;23.90;;;;;;5015165;28;19913;-90
2022/06/04 07:39:14;;;;;;;;;;;32.60;23.80;;;;;;5033438;28;19936;-90
2022/06/04 07:41:43;;;;;;;;;;;32.80;23.50;;;;;;5034108;28;19914;-90
2022/06/04 07:44:09;;;;;;;;;;;33.10;23.20;;;;;;5012301;28;19913;-90
2022/06/04 07:46:35;;;;;;;;;;;33.30;23.30;;;;;;5004945;28;19917;-90
2022/06/04 07:49:03;;;;;;;;;;;33.50;22.70;;;;;;5025608;28;20328;-90
2022/06/04 07:51:29;;;;;;;;;;;33.60;22.50;;;;;;5019009;28;20472;-89
2022/06/04 07:53:55;;;;;;;;;;;33.70;22.40;;;;;;5015667;28;19913;-90
2022/06/04 07:56:21;;;;;;;;;;;33.80;22.50;;;;;;5033263;28;19913;-90
2022/06/04 07:58:47;;;;;;;;;;;33.90;22.60;;;;;;5015389;28;19925;-90
2022/06/04 08:01:14;;;;;;;;;;;34.10;22.10;;;;;;5012137;28;19917;-89
2022/06/04 08:03:40;;;;;;;;;;;34.00;22.00;;;;;;5020741;28;19913;-90
2022/06/04 08:06:06;;;;;;;;;;;33.80;22.10;;;;;;5020227;28;19917;-90
2022/06/04 08:08:34;;;;;;;;;;;33.70;22.20;;;;;;5003322;28;19940;-89
2022/06/04 08:11:00;;;;;;;;;;;33.50;22.20;;;;;;5038002;28;19917;-90
2022/06/04 08:13:26;;;;;;;;;;;33.50;22.60;;;;;;5020150;28;19942;-89
2022/06/04 08:15:56;;;;;;;;;;;33.70;22.70;;;;;;5021310;28;20407;-90
2022/06/04 08:18:21;;;;;;;;;;;33.80;22.50;;;;;;5024481;28;19921;-90
2022/06/04 08:20:47;;;;;;;;;;;34.00;22.80;;;;;;5036880;28;19951;-88
2022/06/04 08:23:13;;;;;;;;;;;34.30;22.70;;;;;;5033758;28;19913;-90
2022/06/04 08:25:40;;;;;;;;;;;34.70;22.60;;;;;;5016559;28;19917;-90
2022/06/04 08:28:06;;;;;;;;;;;34.80;21.80;;;;;;5034167;28;19913;-90
2022/06/04 08:30:31;;;;;;;;;;;34.90;21.60;;;;;;5037648;28;19917;-90
2022/06/04 08:32:57;;;;;;;;;;;34.90;21.60;;;;;;5037788;28;19995;-89
2022/06/04 08:35:22;;;;;;;;;;;35.00;21.20;;;;;;5019109;28;19925;-87
2022/06/04 08:37:48;;;;;;;;;;;35.10;21.10;;;;;;4995721;28;19921;-89
2022/06/04 08:40:26;;;;;;;;;;;35.10;21.10;;;;;;5025571;28;19925;-89
2022/06/04 08:43:01;;;;;;;;;;;35.20;20.90;;;;;;5012772;28;19956;-90
2022/06/04 08:45:26;;;;;;;;;;;35.10;21.00;;;;;;5015508;28;19916;-90
2022/06/04 08:47:53;;;;;;;;;;;35.10;21.00;;;;;;5029144;28;19940;-90
2022/06/04 08:50:20;;;;;;;;;;;35.10;21.10;;;;;;5021219;28;20369;-90
2022/06/04 08:52:46;;;;;;;;;;;35.20;21.30;;;;;;5037693;28;19948;-89
2022/06/04 08:58:04;;;;;;;;;;;35.20;21.40;;;;;;5033537;28;20584;-90
2022/06/04 09:00:31;;;;;;;;;;;35.40;21.40;;;;;;5012268;28;19917;-90
2022/06/04 09:03:04;;;;;;;;;;;35.60;21.20;;;;;;5030034;28;19921;-89
2022/06/04 09:05:48;;;;;;;;;;;35.80;21.00;;;;;;5018078;28;19991;-90
2022/06/04 09:08:17;;;;;;;;;;;35.90;20.70;;;;;;5013738;28;19924;-90
2022/06/04 09:11:04;;;;;;;;;;;36.10;20.40;;;;;;5006075;28;20633;-90
2022/06/04 09:13:41;;;;;;;;;;;36.20;20.20;;;;;;5025310;28;19924;-90
2022/06/04 09:16:21;;;;;;;;;;;36.20;20.00;;;;;;5030320;28;20381;-90
2022/06/04 09:18:49;;;;;;;;;;;36.20;20.30;;;;;;5033468;28;20011;-89
2022/06/04 09:21:15;;;;;;;;;;;36.30;20.40;;;;;;5007246;28;20036;-90
2022/06/04 09:23:46;;;;;;;;;;;36.60;20.20;;;;;;5015980;28;20420;-89
2022/06/04 09:26:14;;;;;;;;;;;36.80;20.10;;;;;;5021167;28;20008;-90
2022/06/04 09:28:59;;;;;;;;;;;37.00;19.60;;;;;;5019050;28;19913;-90
2022/06/04 09:31:43;;;;;;;;;;;37.10;19.70;;;;;;5011681;28;20455;-88
2022/06/04 09:34:11;;;;;;;;;;;37.20;20.00;;;;;;5032407;28;20010;-89
2022/06/04 09:36:38;;;;;;;;;;;37.20;19.90;;;;;;5015019;28;20027;-88
2022/06/04 09:39:05;;;;;;;;;;;37.10;19.50;;;;;;5019218;28;19924;-88
2022/06/04 09:41:32;;;;;;;;;;;36.90;19.70;;;;;;5028084;28;19949;-88
2022/06/04 09:44:03;;;;;;;;;;;36.80;20.00;;;;;;5008599;28;19957;-88
2022/06/04 09:46:29;;;;;;;;;;;36.70;20.10;;;;;;5014360;28;19927;-88
2022/06/04 09:48:55;;;;;;;;;;;36.70;20.10;;;;;;5034055;28;20004;-88
2022/06/04 09:51:22;;;;;;;;;;;36.70;20.50;;;;;;5016770;28;19913;-88
2022/06/04 09:53:49;;;;;;;;;;;37.10;20.00;;;;;;5014844;28;19948;-89
2022/06/04 09:56:34;;;;;;;;;;;37.20;19.70;;;;;;5018147;28;19917;-89
2022/06/04 09:59:20;;;;;;;;;;;37.20;19.30;;;;;;5032131;28;19976;-89
2022/06/04 10:01:53;;;;;;;;;;;36.90;19.70;;;;;;5017276;28;19999;-89
2022/06/04 10:04:18;;;;;;;;;;;36.70;20.10;;;;;;5021806;28;20023;-88
2022/06/04 10:06:44;;;;;;;;;;;37.00;20.10;;;;;;5014066;28;19988;-88
2022/06/04 10:12:03;;;;;;;;;;;37.70;19.10;;;;;;5034152;28;19971;-88
2022/06/04 10:14:35;;;;;;;;;;;37.80;19.20;;;;;;5017758;28;20349;-88
2022/06/04 10:17:01;;;;;;;;;;;37.80;19.00;;;;;;5032772;28;19917;-87
2022/06/04 10:19:26;;;;;;;;;;;37.70;19.20;;;;;;5033940;28;19923;-89
2022/06/04 10:22:10;;;;;;;;;;;37.70;19.60;;;;;;5017608;28;19921;-88
2022/06/04 10:24:36;;;;;;;;;;;37.70;19.30;;;;;;5033382;28;20276;-88
2022/06/04 10:27:22;;;;;;;;;;;37.40;19.30;;;;;;5018355;28;19921;-89
2022/06/04 10:29:54;;;;;;;;;;;37.30;19.40;;;;;;5006070;28;19924;-90
2022/06/04 10:32:31;;;;;;;;;;;37.30;19.60;;;;;;5028528;28;19955;-89
2022/06/04 10:35:13;;;;;;;;;;;37.20;19.60;;;;;;5031288;28;19943;-88
2022/06/04 10:37:41;;;;;;;;;;;37.20;19.60;;;;;;5021380;28;19952;-88
2022/06/04 10:40:07;;;;;;;;;;;37.00;19.80;;;;;;5013554;28;19917;-89
2022/06/04 10:42:32;;;;;;;;;;;36.80;19.90;;;;;;5032790;28;19917;-88
2022/06/04 10:45:04;;;;;;;;;;;36.60;20.00;;;;;;5033369;28;19917;-89
2022/06/04 10:47:30;;;;;;;;;;;36.30;20.30;;;;;;5030539;28;19956;-88
2022/06/04 10:50:04;;;;;;;;;;;36.30;20.60;;;;;;5015941;28;19937;-89
2022/06/04 10:52:41;;;;;;;;;;;36.30;20.80;;;;;;5028036;28;19939;-88
2022/06/04 10:55:21;;;;;;;;;;;36.30;20.60;;;;;;5031971;28;19968;-89
2022/06/04 10:57:46;;;;;;;;;;;36.20;21.00;;;;;;5033837;28;19958;-89
2022/06/04 11:00:14;;;;;;;;;;;36.10;21.00;;;;;;5032581;28;19924;-88
2022/06/04 11:02:48;;;;;;;;;;;36.00;21.30;;;;;;5008748;28;19913;-89
2022/06/04 11:05:14;;;;;;;;;;;36.30;21.30;;;;;;5013103;28;19924;-88
2022/06/04 11:07:39;;;;;;;;;;;36.70;21.00;;;;;;5005765;28;19957;-88
2022/06/04 11:10:07;;;;;;;;;;;37.10;20.80;;;;;;5029529;28;19939;-89
2022/06/04 11:12:42;;;;;;;;;;;37.40;20.30;;;;;;5015454;28;20293;-89
2022/06/04 11:15:14;;;;;;;;;;;37.70;20.10;;;;;;5014527;28;19924;-89
2022/06/04 11:17:40;;;;;;;;;;;38.00;20.00;;;;;;5025050;28;19925;-90
2022/06/04 11:20:10;;;;;;;;;;;38.20;19.50;;;;;;5012489;28;19917;-89
2022/06/04 11:22:37;;;;;;;;;;;38.10;19.80;;;;;;5031227;28;19913;-89
2022/06/04 11:25:15;;;;;;;;;;;38.00;20.00;;;;;;5029416;28;19928;-88
2022/06/04 11:27:45;;;;;;;;;;;38.00;20.40;;;;;;5013004;28;20377;-87
2022/06/04 11:30:15;;;;;;;;;;;37.80;20.70;;;;;;5011098;28;19921;-87
2022/06/04 11:32:40;;;;;;;;;;;37.70;20.80;;;;;;5024417;28;19923;-87
2022/06/04 11:35:18;;;;;;;;;;;37.30;20.70;;;;;;5029710;28;20000;-87
2022/06/04 11:37:45;;;;;;;;;;;37.00;21.10;;;;;;5023014;28;20486;-86
2022/06/04 11:40:22;;;;;;;;;;;36.50;21.50;;;;;;5034317;28;19947;-89
2022/06/04 11:42:51;;;;;;;;;;;36.10;22.00;;;;;;5021221;28;19920;-89
2022/06/04 11:45:32;;;;;;;;;;;35.80;22.30;;;;;;5015976;28;19917;-89
2022/06/04 11:48:20;;;;;;;;;;;35.40;22.70;;;;;;5012650;28;20008;-90
2022/06/04 11:50:54;;;;;;;;;;;35.20;23.00;;;;;;5013853;28;19984;-90
2022/06/04 11:53:22;;;;;;;;;;;34.80;23.30;;;;;;5033110;28;19916;-90
2022/06/04 11:55:48;;;;;;;;;;;34.50;23.80;;;;;;5032861;28;19913;-89
2022/06/04 11:58:25;;;;;;;;;;;34.10;24.00;;;;;;5030645;28;19971;-89
2022/06/04 12:00:52;;;;;;;;;;;33.80;24.50;;;;;;5011058;28;19913;-90
2022/06/04 12:03:25;;;;;;;;;;;33.50;24.90;;;;;;5030499;28;19960;-89
2022/06/04 12:06:03;;;;;;;;;;;33.20;25.20;;;;;;5012986;28;19929;-89
2022/06/04 12:08:33;;;;;;;;;;;32.90;25.60;;;;;;5015531;28;20015;-89
2022/06/04 12:11:10;;;;;;;;;;;32.70;26.00;;;;;;5033826;28;19967;-88
2022/06/04 12:14:11;;;;;;;;;;;32.50;26.20;;;;;;5016324;28;19980;-89
2022/06/04 12:16:40;;;;;;;;;;;32.30;26.30;;;;;;4975975;28;19929;-89
2022/06/04 12:25:10;;;;;;;;;;;31.80;27.20;;;;;;5034491;28;19963;-90
2022/06/04 12:27:38;;;;;;;;;;;31.70;27.40;;;;;;5016651;28;20008;-90
2022/06/04 12:30:15;;;;;;;;;;;31.60;27.50;;;;;;5034176;28;19920;-90
2022/06/04 12:32:41;;;;;;;;;;;31.50;27.70;;;;;;5033996;28;19985;-90
2022/06/04 12:35:06;;;;;;;;;;;31.50;27.80;;;;;;5016141;28;19975;-89
2022/06/04 12:37:41;;;;;;;;;;;31.50;27.70;;;;;;5033964;28;19925;-90
2022/06/04 12:40:19;;;;;;;;;;;31.70;27.70;;;;;;5016592;28;20057;-89
2022/06/04 12:43:00;;;;;;;;;;;31.80;27.60;;;;;;5036411;28;19921;-90
2022/06/04 12:45:42;;;;;;;;;;;32.00;27.40;;;;;;5038260;28;19955;-90
2022/06/04 12:48:41;;;;;;;;;;;32.00;27.50;;;;;;5019970;28;19970;-89
2022/06/04 12:51:09;;;;;;;;;;;32.10;27.50;;;;;;5019301;28;20043;-91
2022/06/04 12:53:47;;;;;;;;;;;32.10;27.30;;;;;;5021561;28;19928;-90
2022/06/04 12:56:20;;;;;;;;;;;32.20;26.80;;;;;;5038358;28;20047;-89
2022/06/04 12:58:53;;;;;;;;;;;32.20;27.00;;;;;;5019733;28;20516;-90
2022/06/04 13:01:18;;;;;;;;;;;32.30;27.10;;;;;;5001368;28;19928;-90
2022/06/04 13:03:49;;;;;;;;;;;32.30;27.20;;;;;;5001205;28;19922;-90
2022/06/04 13:06:38;;;;;;;;;;;32.80;27.10;;;;;;5020106;28;19913;-90
2022/06/04 13:09:12;;;;;;;;;;;33.30;26.40;;;;;;4979932;28;19943;-89
2022/06/04 13:11:37;;;;;;;;;;;33.60;25.80;;;;;;4976893;28;19914;-89
2022/06/04 13:14:26;;;;;;;;;;;33.70;25.40;;;;;;4975857;28;20335;-90
2022/06/04 13:16:55;;;;;;;;;;;33.80;25.40;;;;;;4948724;28;19937;-89
2022/06/04 13:19:39;;;;;;;;;;;33.90;25.30;;;;;;4977486;28;19918;-90
2022/06/04 13:22:14;;;;;;;;;;;34.30;24.90;;;;;;4976989;28;20399;-89
2022/06/04 13:24:40;;;;;;;;;;;35.00;24.40;;;;;;4977548;28;20418;-90
2022/06/04 13:27:10;;;;;;;;;;;35.40;23.60;;;;;;4980162;28;20021;-91
2022/06/04 13:29:37;;;;;;;;;;;35.80;23.40;;;;;;4981677;28;19957;-91
2022/06/04 13:32:10;;;;;;;;;;;36.10;22.90;;;;;;4985701;28;19972;-90
2022/06/04 13:34:36;;;;;;;;;;;36.20;22.70;;;;;;5015462;28;19917;-91
2022/06/04 13:37:03;;;;;;;;;;;36.40;22.50;;;;;;5019383;28;20140;-90
2022/06/04 13:39:28;;;;;;;;;;;36.60;22.10;;;;;;5020160;28;19944;-90
2022/06/04 13:42:01;;;;;;;;;;;36.70;22.10;;;;;;5019276;28;19913;-89
2022/06/04 13:44:26;;;;;;;;;;;36.70;21.70;;;;;;5019481;28;20480;-90
2022/06/04 13:46:53;;;;;;;;;;;36.60;21.70;;;;;;5021076;28;19901;-90
2022/06/04 13:49:23;;;;;;;;;;;36.80;21.80;;;;;;5021785;28;20436;-89
2022/06/04 13:51:53;;;;;;;;;;;36.70;21.60;;;;;;5021573;28;20381;-89
2022/06/04 13:54:21;;;;;;;;;;;36.70;21.70;;;;;;5037997;28;19921;-89
2022/06/04 13:56:48;;;;;;;;;;;36.80;21.60;;;;;;5022585;28;19920;-87
2022/06/04 13:59:28;;;;;;;;;;;36.80;21.50;;;;;;5039515;28;19922;-89
2022/06/04 14:01:55;;;;;;;;;;;36.70;21.70;;;;;;5019751;28;19924;-89
2022/06/04 14:07:12;;;;;;;;;;;36.80;21.70;;;;;;5035772;28;19924;-90
2022/06/04 14:09:39;;;;;;;;;;;36.50;21.40;;;;;;5040019;28;19917;-90
2022/06/04 14:12:19;;;;;;;;;;;36.30;21.70;;;;;;5020503;28;19913;-87
2022/06/04 14:14:56;;;;;;;;;;;36.30;21.70;;;;;;5003499;28;19925;-90
2022/06/04 14:17:36;;;;;;;;;;;36.30;21.60;;;;;;5036196;28;19931;-89
2022/06/04 14:20:14;;;;;;;;;;;36.20;21.70;;;;;;5038466;28;19922;-89
2022/06/04 14:22:42;;;;;;;;;;;36.00;22.00;;;;;;5001748;28;20388;-89
2022/06/04 14:25:18;;;;;;;;;;;35.80;22.30;;;;;;5031907;28;20348;-88
2022/06/04 14:27:49;;;;;;;;;;;35.70;22.60;;;;;;5038467;28;19921;-89
2022/06/04 14:30:17;;;;;;;;;;;35.40;22.70;;;;;;5037418;28;19928;-89
2022/06/04 14:32:48;;;;;;;;;;;35.10;22.90;;;;;;5015380;28;20624;-89
2022/06/04 14:35:16;;;;;;;;;;;34.70;23.40;;;;;;5023623;28;20349;-90
2022/06/04 14:37:44;;;;;;;;;;;34.30;23.90;;;;;;5020934;28;19928;-90
2022/06/04 14:40:16;;;;;;;;;;;33.80;24.60;;;;;;5020524;28;19925;-87
2022/06/04 14:43:05;;;;;;;;;;;33.20;24.90;;;;;;5037969;28;19995;-87
2022/06/04 14:45:34;;;;;;;;;;;32.70;25.60;;;;;;5035885;28;19930;-89
2022/06/04 14:48:19;;;;;;;;;;;32.20;26.40;;;;;;5033446;28;19936;-88
2022/06/04 14:51:01;;;;;;;;;;;31.80;26.70;;;;;;5030672;28;19913;-87